sensor_id;sensor_type;location;lat;lon;timestamp;P1;durP1;ratioP1;P2;durP2;ratioP2
19848;SDS011;10085;51.120;6.956;2023-03-14T00:02:39;18.73;;;6.22;;
19848;SDS011;10085;51.120;6.956;2023-03-14T00:07:42;15.30;;;5.97;;
19848;SDS011;10085;51.120;6.956;2023-03-14T00:12:46;14.88;;;5.85;;
19848;SDS011;10085;51.120;6.956;2023-03-14T00:17:49;14.80;;;6.05;;
19848;SDS011;10085;51.120;6.956;2023-03-14T00:22:51;18.15;;;5.32;;
19848;SDS011;10085;51.120;6.956;2023-03-14T00:27:55;15.18;;;5.47;;
19848;SDS011;10085;51.120;6.956;2023-03-14T00:32:58;14.80;;;5.20;;
19848;SDS011;10085;51.120;6.956;2023-03-14T00:38:01;15.15;;;5.47;;
19848;SDS011;10085;51.120;6.956;2023-03-14T00:43:05;14.70;;;5.22;;
19848;SDS011;10085;51.120;6.956;2023-03-14T00:48:08;12.73;;;5.35;;
19848;SDS011;10085;51.120;6.956;2023-03-14T00:53:10;15.30;;;5.68;;
19848;SDS011;10085;51.120;6.956;2023-03-14T00:58:15;12.50;;;5.00;;
19848;SDS011;10085;51.120;6.956;2023-03-14T01:03:20;11.25;;;5.10;;
19848;SDS011;10085;51.120;6.956;2023-03-14T01:08:23;12.43;;;4.90;;
19848;SDS011;10085;51.120;6.956;2023-03-14T01:13:29;11.82;;;4.50;;
19848;SDS011;10085;51.120;6.956;2023-03-14T01:18:32;11.95;;;4.90;;
19848;SDS011;10085;51.120;6.956;2023-03-14T01:23:36;12.13;;;4.85;;
19848;SDS011;10085;51.120;6.956;2023-03-14T01:28:40;11.65;;;4.88;;
19848;SDS011;10085;51.120;6.956;2023-03-14T01:33:44;11.82;;;4.70;;
19848;SDS011;10085;51.120;6.956;2023-03-14T01:38:47;11.68;;;4.60;;
19848;SDS011;10085;51.120;6.956;2023-03-14T01:43:53;8.63;;;4.03;;
19848;SDS011;10085;51.120;6.956;2023-03-14T01:48:59;8.82;;;3.83;;
19848;SDS011;10085;51.120;6.956;2023-03-14T01:54:07;8.75;;;3.53;;
19848;SDS011;10085;51.120;6.956;2023-03-14T01:59:14;9.60;;;4.07;;
19848;SDS011;10085;51.120;6.956;2023-03-14T02:04:17;10.02;;;4.10;;
19848;SDS011;10085;51.120;6.956;2023-03-14T02:09:20;7.82;;;3.67;;
19848;SDS011;10085;51.120;6.956;2023-03-14T02:14:30;6.68;;;3.58;;
19848;SDS011;10085;51.120;6.956;2023-03-14T02:20:03;8.82;;;3.75;;
19848;SDS011;10085;51.120;6.956;2023-03-14T02:25:17;6.55;;;3.50;;
19848;SDS011;10085;51.120;6.956;2023-03-14T02:30:25;7.78;;;3.80;;
19848;SDS011;10085;51.120;6.956;2023-03-14T02:35:31;10.02;;;3.35;;
19848;SDS011;10085;51.120;6.956;2023-03-14T02:40:36;8.55;;;3.78;;
19848;SDS011;10085;51.120;6.956;2023-03-14T02:45:45;6.47;;;3.10;;
19848;SDS011;10085;51.120;6.956;2023-03-14T02:50:52;6.55;;;3.20;;
19848;SDS011;10085;51.120;6.956;2023-03-14T02:55:57;8.05;;;3.47;;
19848;SDS011;10085;51.120;6.956;2023-03-14T03:01:03;6.80;;;3.28;;
19848;SDS011;10085;51.120;6.956;2023-03-14T03:06:07;5.38;;;2.83;;
19848;SDS011;10085;51.120;6.956;2023-03-14T03:11:10;6.78;;;3.13;;
19848;SDS011;10085;51.120;6.956;2023-03-14T03:16:14;7.00;;;2.97;;
19848;SDS011;10085;51.120;6.956;2023-03-14T03:21:17;5.90;;;2.78;;
19848;SDS011;10085;51.120;6.956;2023-03-14T03:26:24;9.00;;;3.10;;
19848;SDS011;10085;51.120;6.956;2023-03-14T03:31:28;8.00;;;3.25;;
19848;SDS011;10085;51.120;6.956;2023-03-14T03:36:31;6.18;;;2.63;;
19848;SDS011;10085;51.120;6.956;2023-03-14T03:41:34;5.30;;;2.58;;
19848;SDS011;10085;51.120;6.956;2023-03-14T03:46:38;6.82;;;2.95;;
19848;SDS011;10085;51.120;6.956;2023-03-14T03:51:42;4.50;;;2.70;;
19848;SDS011;10085;51.120;6.956;2023-03-14T03:56:45;5.88;;;2.80;;
19848;SDS011;10085;51.120;6.956;2023-03-14T04:01:49;5.88;;;3.00;;
19848;SDS011;10085;51.120;6.956;2023-03-14T04:06:52;5.05;;;2.55;;
19848;SDS011;10085;51.120;6.956;2023-03-14T04:11:55;6.95;;;2.53;;
19848;SDS011;10085;51.120;6.956;2023-03-14T04:17:17;5.88;;;2.60;;
19848;SDS011;10085;51.120;6.956;2023-03-14T04:22:22;5.53;;;2.80;;
19848;SDS011;10085;51.120;6.956;2023-03-14T04:27:25;6.47;;;3.00;;
19848;SDS011;10085;51.120;6.956;2023-03-14T04:32:31;6.00;;;2.83;;
19848;SDS011;10085;51.120;6.956;2023-03-14T04:37:34;4.75;;;2.55;;
19848;SDS011;10085;51.120;6.956;2023-03-14T04:42:38;4.80;;;2.70;;
19848;SDS011;10085;51.120;6.956;2023-03-14T04:47:43;4.32;;;2.53;;
19848;SDS011;10085;51.120;6.956;2023-03-14T04:52:49;4.97;;;2.92;;
19848;SDS011;10085;51.120;6.956;2023-03-14T04:57:53;4.68;;;2.70;;
19848;SDS011;10085;51.120;6.956;2023-03-14T05:02:58;4.88;;;2.67;;
19848;SDS011;10085;51.120;6.956;2023-03-14T05:08:21;6.13;;;2.92;;
19848;SDS011;10085;51.120;6.956;2023-03-14T05:13:35;5.20;;;2.65;;
19848;SDS011;10085;51.120;6.956;2023-03-14T05:18:57;5.32;;;2.70;;
19848;SDS011;10085;51.120;6.956;2023-03-14T05:24:18;4.95;;;2.67;;
19848;SDS011;10085;51.120;6.956;2023-03-14T05:29:36;5.78;;;3.15;;
19848;SDS011;10085;51.120;6.956;2023-03-14T05:34:51;4.47;;;2.72;;
19848;SDS011;10085;51.120;6.956;2023-03-14T05:40:16;4.50;;;2.75;;
19848;SDS011;10085;51.120;6.956;2023-03-14T05:45:35;4.13;;;2.30;;
19848;SDS011;10085;51.120;6.956;2023-03-14T05:50:56;4.32;;;2.33;;
19848;SDS011;10085;51.120;6.956;2023-03-14T05:56:10;5.60;;;2.47;;
19848;SDS011;10085;51.120;6.956;2023-03-14T06:01:32;3.55;;;2.20;;
19848;SDS011;10085;51.120;6.956;2023-03-14T06:06:46;4.05;;;2.40;;
19848;SDS011;10085;51.120;6.956;2023-03-14T06:11:49;4.78;;;2.10;;
19848;SDS011;10085;51.120;6.956;2023-03-14T06:16:53;3.90;;;2.50;;
19848;SDS011;10085;51.120;6.956;2023-03-14T06:21:59;3.15;;;2.05;;
19848;SDS011;10085;51.120;6.956;2023-03-14T06:27:02;4.10;;;2.08;;
19848;SDS011;10085;51.120;6.956;2023-03-14T06:32:06;4.25;;;2.40;;
19848;SDS011;10085;51.120;6.956;2023-03-14T06:37:12;3.75;;;2.28;;
19848;SDS011;10085;51.120;6.956;2023-03-14T06:42:15;4.15;;;2.40;;
19848;SDS011;10085;51.120;6.956;2023-03-14T06:47:18;3.53;;;1.90;;
19848;SDS011;10085;51.120;6.956;2023-03-14T06:52:23;3.58;;;2.10;;
19848;SDS011;10085;51.120;6.956;2023-03-14T06:57:26;3.45;;;2.13;;
19848;SDS011;10085;51.120;6.956;2023-03-14T07:02:28;4.38;;;2.33;;
19848;SDS011;10085;51.120;6.956;2023-03-14T07:07:53;4.40;;;2.17;;
19848;SDS011;10085;51.120;6.956;2023-03-14T07:12:57;3.75;;;2.17;;
19848;SDS011;10085;51.120;6.956;2023-03-14T07:18:02;2.95;;;1.88;;
19848;SDS011;10085;51.120;6.956;2023-03-14T07:23:06;3.97;;;1.80;;
19848;SDS011;10085;51.120;6.956;2023-03-14T07:28:14;3.85;;;1.95;;
19848;SDS011;10085;51.120;6.956;2023-03-14T07:33:19;3.20;;;1.98;;
19848;SDS011;10085;51.120;6.956;2023-03-14T07:38:24;3.20;;;1.90;;
19848;SDS011;10085;51.120;6.956;2023-03-14T07:43:42;2.72;;;1.63;;
19848;SDS011;10085;51.120;6.956;2023-03-14T07:48:45;3.25;;;1.75;;
19848;SDS011;10085;51.120;6.956;2023-03-14T07:53:50;4.32;;;1.60;;
19848;SDS011;10085;51.120;6.956;2023-03-14T07:58:52;2.55;;;1.67;;
19848;SDS011;10085;51.120;6.956;2023-03-14T08:03:55;3.35;;;1.70;;
19848;SDS011;10085;51.120;6.956;2023-03-14T08:08:59;3.67;;;1.80;;
19848;SDS011;10085;51.120;6.956;2023-03-14T08:14:02;3.90;;;1.90;;
19848;SDS011;10085;51.120;6.956;2023-03-14T08:19:05;3.42;;;1.70;;
19848;SDS011;10085;51.120;6.956;2023-03-14T08:24:09;2.65;;;1.60;;
19848;SDS011;10085;51.120;6.956;2023-03-14T08:29:12;4.82;;;1.60;;
19848;SDS011;10085;51.120;6.956;2023-03-14T08:34:14;4.22;;;1.60;;
19848;SDS011;10085;51.120;6.956;2023-03-14T08:39:18;4.07;;;1.60;;
19848;SDS011;10085;51.120;6.956;2023-03-14T08:44:21;5.13;;;1.90;;
19848;SDS011;10085;51.120;6.956;2023-03-14T08:49:24;2.25;;;1.60;;
19848;SDS011;10085;51.120;6.956;2023-03-14T08:54:28;3.25;;;1.63;;
19848;SDS011;10085;51.120;6.956;2023-03-14T08:59:31;5.55;;;2.05;;
19848;SDS011;10085;51.120;6.956;2023-03-14T09:04:33;5.20;;;1.67;;
19848;SDS011;10085;51.120;6.956;2023-03-14T09:09:38;4.10;;;1.70;;
19848;SDS011;10085;51.120;6.956;2023-03-14T09:14:40;3.78;;;1.70;;
19848;SDS011;10085;51.120;6.956;2023-03-14T09:19:43;3.45;;;1.42;;
19848;SDS011;10085;51.120;6.956;2023-03-14T09:24:47;2.85;;;1.58;;
19848;SDS011;10085;51.120;6.956;2023-03-14T09:29:50;3.65;;;1.50;;
19848;SDS011;10085;51.120;6.956;2023-03-14T09:34:53;2.60;;;1.40;;
19848;SDS011;10085;51.120;6.956;2023-03-14T09:39:57;3.10;;;1.40;;
19848;SDS011;10085;51.120;6.956;2023-03-14T09:45:00;3.05;;;1.65;;
19848;SDS011;10085;51.120;6.956;2023-03-14T09:50:09;2.83;;;1.60;;
19848;SDS011;10085;51.120;6.956;2023-03-14T09:55:16;3.40;;;1.60;;
19848;SDS011;10085;51.120;6.956;2023-03-14T10:00:21;3.00;;;1.40;;
19848;SDS011;10085;51.120;6.956;2023-03-14T10:05:25;2.75;;;1.40;;
19848;SDS011;10085;51.120;6.956;2023-03-14T10:10:30;3.47;;;1.50;;
19848;SDS011;10085;51.120;6.956;2023-03-14T10:15:34;2.47;;;1.48;;
19848;SDS011;10085;51.120;6.956;2023-03-14T10:20:38;2.33;;;1.35;;
19848;SDS011;10085;51.120;6.956;2023-03-14T10:25:44;2.35;;;1.48;;
19848;SDS011;10085;51.120;6.956;2023-03-14T10:30:48;1.92;;;1.42;;
19848;SDS011;10085;51.120;6.956;2023-03-14T10:35:54;1.77;;;1.38;;
19848;SDS011;10085;51.120;6.956;2023-03-14T10:40:59;2.10;;;1.30;;
19848;SDS011;10085;51.120;6.956;2023-03-14T10:46:05;1.67;;;1.23;;
19848;SDS011;10085;51.120;6.956;2023-03-14T10:51:30;2.05;;;1.30;;
19848;SDS011;10085;51.120;6.956;2023-03-14T10:56:35;2.20;;;1.45;;
19848;SDS011;10085;51.120;6.956;2023-03-14T11:07:32;1.92;;;1.38;;
19848;SDS011;10085;51.120;6.956;2023-03-14T11:12:44;3.38;;;1.38;;
19848;SDS011;10085;51.120;6.956;2023-03-14T11:18:09;2.75;;;1.20;;
19848;SDS011;10085;51.120;6.956;2023-03-14T11:23:21;2.75;;;1.25;;
19848;SDS011;10085;51.120;6.956;2023-03-14T11:28:28;2.30;;;1.30;;
19848;SDS011;10085;51.120;6.956;2023-03-14T11:33:37;1.60;;;1.20;;
19848;SDS011;10085;51.120;6.956;2023-03-14T11:38:42;2.90;;;1.40;;
19848;SDS011;10085;51.120;6.956;2023-03-14T11:43:56;2.78;;;1.55;;
19848;SDS011;10085;51.120;6.956;2023-03-14T11:49:01;2.67;;;1.65;;
19848;SDS011;10085;51.120;6.956;2023-03-14T11:54:11;3.20;;;1.65;;
19848;SDS011;10085;51.120;6.956;2023-03-14T11:59:19;3.10;;;1.88;;
19848;SDS011;10085;51.120;6.956;2023-03-14T12:04:38;2.97;;;1.80;;
19848;SDS011;10085;51.120;6.956;2023-03-14T12:09:49;4.47;;;2.15;;
19848;SDS011;10085;51.120;6.956;2023-03-14T12:14:55;2.92;;;1.98;;
19848;SDS011;10085;51.120;6.956;2023-03-14T12:20:06;2.88;;;1.90;;
19848;SDS011;10085;51.120;6.956;2023-03-14T12:25:19;2.60;;;1.70;;
19848;SDS011;10085;51.120;6.956;2023-03-14T12:30:27;2.83;;;1.70;;
19848;SDS011;10085;51.120;6.956;2023-03-14T12:35:35;2.70;;;1.90;;
19848;SDS011;10085;51.120;6.956;2023-03-14T12:40:38;2.47;;;1.80;;
19848;SDS011;10085;51.120;6.956;2023-03-14T12:45:44;2.47;;;1.95;;
19848;SDS011;10085;51.120;6.956;2023-03-14T12:51:12;2.35;;;1.73;;
19848;SDS011;10085;51.120;6.956;2023-03-14T12:56:26;2.03;;;1.63;;
19848;SDS011;10085;51.120;6.956;2023-03-14T13:01:32;2.60;;;1.88;;
19848;SDS011;10085;51.120;6.956;2023-03-14T13:06:46;2.40;;;1.90;;
19848;SDS011;10085;51.120;6.956;2023-03-14T13:11:52;2.00;;;1.65;;
19848;SDS011;10085;51.120;6.956;2023-03-14T13:16:57;3.13;;;1.73;;
19848;SDS011;10085;51.120;6.956;2023-03-14T13:22:22;2.42;;;1.85;;
19848;SDS011;10085;51.120;6.956;2023-03-14T13:27:29;1.52;;;1.42;;
19848;SDS011;10085;51.120;6.956;2023-03-14T13:32:34;2.17;;;1.70;;
19848;SDS011;10085;51.120;6.956;2023-03-14T13:37:43;1.90;;;1.60;;
19848;SDS011;10085;51.120;6.956;2023-03-14T13:42:46;2.00;;;1.40;;
19848;SDS011;10085;51.120;6.956;2023-03-14T13:47:50;2.92;;;1.33;;
19848;SDS011;10085;51.120;6.956;2023-03-14T13:52:57;2.25;;;1.60;;
19848;SDS011;10085;51.120;6.956;2023-03-14T13:57:59;3.75;;;1.88;;
19848;SDS011;10085;51.120;6.956;2023-03-14T14:03:04;12.95;;;2.70;;
19848;SDS011;10085;51.120;6.956;2023-03-14T14:08:06;10.48;;;3.30;;
19848;SDS011;10085;51.120;6.956;2023-03-14T14:13:14;18.40;;;3.78;;
19848;SDS011;10085;51.120;6.956;2023-03-14T14:18:21;12.18;;;4.10;;
19848;SDS011;10085;51.120;6.956;2023-03-14T14:23:26;18.92;;;4.28;;
19848;SDS011;10085;51.120;6.956;2023-03-14T14:28:31;17.02;;;4.60;;
19848;SDS011;10085;51.120;6.956;2023-03-14T14:33:41;23.83;;;4.93;;
19848;SDS011;10085;51.120;6.956;2023-03-14T14:38:51;23.08;;;4.88;;
19848;SDS011;10085;51.120;6.956;2023-03-14T14:43:58;22.75;;;4.70;;
19848;SDS011;10085;51.120;6.956;2023-03-14T14:49:04;22.25;;;4.72;;
19848;SDS011;10085;51.120;6.956;2023-03-14T14:54:13;19.23;;;4.63;;
19848;SDS011;10085;51.120;6.956;2023-03-14T14:59:20;16.50;;;5.03;;
19848;SDS011;10085;51.120;6.956;2023-03-14T15:04:26;21.02;;;4.85;;
19848;SDS011;10085;51.120;6.956;2023-03-14T15:09:29;16.58;;;5.00;;
19848;SDS011;10085;51.120;6.956;2023-03-14T15:14:32;13.32;;;4.35;;
19848;SDS011;10085;51.120;6.956;2023-03-14T15:19:36;18.50;;;4.78;;
19848;SDS011;10085;51.120;6.956;2023-03-14T15:24:39;13.18;;;3.65;;
19848;SDS011;10085;51.120;6.956;2023-03-14T15:29:42;18.92;;;4.38;;
19848;SDS011;10085;51.120;6.956;2023-03-14T15:34:47;11.50;;;3.55;;
19848;SDS011;10085;51.120;6.956;2023-03-14T15:39:49;12.05;;;3.47;;
19848;SDS011;10085;51.120;6.956;2023-03-14T15:44:52;10.00;;;3.70;;
19848;SDS011;10085;51.120;6.956;2023-03-14T15:49:56;14.48;;;3.90;;
19848;SDS011;10085;51.120;6.956;2023-03-14T15:54:59;11.77;;;3.40;;
19848;SDS011;10085;51.120;6.956;2023-03-14T16:00:02;9.27;;;2.70;;
19848;SDS011;10085;51.120;6.956;2023-03-14T16:05:09;15.05;;;3.50;;
19848;SDS011;10085;51.120;6.956;2023-03-14T16:10:13;10.90;;;3.40;;
19848;SDS011;10085;51.120;6.956;2023-03-14T16:15:17;12.23;;;2.90;;
19848;SDS011;10085;51.120;6.956;2023-03-14T16:20:21;11.05;;;2.80;;
19848;SDS011;10085;51.120;6.956;2023-03-14T16:25:26;9.85;;;3.53;;
19848;SDS011;10085;51.120;6.956;2023-03-14T16:30:29;7.35;;;2.30;;
19848;SDS011;10085;51.120;6.956;2023-03-14T16:35:33;8.45;;;2.58;;
19848;SDS011;10085;51.120;6.956;2023-03-14T16:40:36;7.78;;;2.45;;
19848;SDS011;10085;51.120;6.956;2023-03-14T16:45:38;6.68;;;2.50;;
19848;SDS011;10085;51.120;6.956;2023-03-14T16:50:42;8.02;;;2.53;;
19848;SDS011;10085;51.120;6.956;2023-03-14T16:55:45;6.28;;;2.10;;
19848;SDS011;10085;51.120;6.956;2023-03-14T17:00:48;9.77;;;2.17;;
19848;SDS011;10085;51.120;6.956;2023-03-14T17:05:52;5.80;;;2.20;;
19848;SDS011;10085;51.120;6.956;2023-03-14T17:10:55;8.73;;;1.90;;
19848;SDS011;10085;51.120;6.956;2023-03-14T17:15:58;7.28;;;2.33;;
19848;SDS011;10085;51.120;6.956;2023-03-14T17:21:03;12.23;;;2.22;;
19848;SDS011;10085;51.120;6.956;2023-03-14T17:26:07;11.27;;;2.47;;
19848;SDS011;10085;51.120;6.956;2023-03-14T17:31:11;6.35;;;2.15;;
19848;SDS011;10085;51.120;6.956;2023-03-14T17:36:17;8.07;;;2.28;;
19848;SDS011;10085;51.120;6.956;2023-03-14T17:41:21;18.45;;;2.55;;
19848;SDS011;10085;51.120;6.956;2023-03-14T17:46:24;8.98;;;1.90;;
19848;SDS011;10085;51.120;6.956;2023-03-14T17:51:28;6.22;;;1.90;;
19848;SDS011;10085;51.120;6.956;2023-03-14T17:56:31;5.95;;;1.90;;
19848;SDS011;10085;51.120;6.956;2023-03-14T18:01:34;7.40;;;1.90;;
19848;SDS011;10085;51.120;6.956;2023-03-14T18:06:47;8.32;;;2.20;;
19848;SDS011;10085;51.120;6.956;2023-03-14T18:11:50;7.57;;;2.25;;
19848;SDS011;10085;51.120;6.956;2023-03-14T18:17:16;5.78;;;1.90;;
19848;SDS011;10085;51.120;6.956;2023-03-14T18:22:20;9.65;;;1.95;;
19848;SDS011;10085;51.120;6.956;2023-03-14T18:27:23;6.55;;;1.75;;
19848;SDS011;10085;51.120;6.956;2023-03-14T18:32:26;3.22;;;1.52;;
19848;SDS011;10085;51.120;6.956;2023-03-14T18:37:30;6.32;;;1.67;;
19848;SDS011;10085;51.120;6.956;2023-03-14T18:42:32;3.67;;;1.80;;
19848;SDS011;10085;51.120;6.956;2023-03-14T18:47:35;6.20;;;1.80;;
19848;SDS011;10085;51.120;6.956;2023-03-14T18:52:39;4.88;;;1.73;;
19848;SDS011;10085;51.120;6.956;2023-03-14T18:57:42;9.05;;;2.08;;
19848;SDS011;10085;51.120;6.956;2023-03-14T19:02:45;4.93;;;1.80;;
19848;SDS011;10085;51.120;6.956;2023-03-14T19:07:49;2.78;;;1.63;;
19848;SDS011;10085;51.120;6.956;2023-03-14T19:12:52;4.22;;;1.65;;
19848;SDS011;10085;51.120;6.956;2023-03-14T19:17:54;4.38;;;1.90;;
19848;SDS011;10085;51.120;6.956;2023-03-14T19:22:58;6.40;;;1.63;;
19848;SDS011;10085;51.120;6.956;2023-03-14T19:28:01;5.38;;;1.58;;
19848;SDS011;10085;51.120;6.956;2023-03-14T19:33:04;6.30;;;1.52;;
19848;SDS011;10085;51.120;6.956;2023-03-14T19:38:12;5.07;;;1.35;;
19848;SDS011;10085;51.120;6.956;2023-03-14T19:43:15;3.53;;;1.27;;
19848;SDS011;10085;51.120;6.956;2023-03-14T19:48:18;38.63;;;13.93;;
19848;SDS011;10085;51.120;6.956;2023-03-14T19:59:37;272.10;;;84.85;;
19848;SDS011;10085;51.120;6.956;2023-03-14T20:06:13;349.40;;;109.03;;
19848;SDS011;10085;51.120;6.956;2023-03-14T20:35:25;484.88;;;153.30;;
19848;SDS011;10085;51.120;6.956;2023-03-14T20:40:34;466.20;;;149.13;;
19848;SDS011;10085;51.120;6.956;2023-03-14T20:45:37;449.85;;;145.13;;
19848;SDS011;10085;51.120;6.956;2023-03-14T20:50:41;453.65;;;143.55;;
19848;SDS011;10085;51.120;6.956;2023-03-14T20:55:43;426.95;;;139.70;;
19848;SDS011;10085;51.120;6.956;2023-03-14T21:00:47;413.15;;;134.52;;
19848;SDS011;10085;51.120;6.956;2023-03-14T21:05:52;380.30;;;127.60;;
19848;SDS011;10085;51.120;6.956;2023-03-14T21:10:55;359.52;;;122.05;;
19848;SDS011;10085;51.120;6.956;2023-03-14T21:15:58;339.98;;;116.05;;
19848;SDS011;10085;51.120;6.956;2023-03-14T21:21:10;330.90;;;112.68;;
19848;SDS011;10085;51.120;6.956;2023-03-14T21:26:14;301.92;;;104.72;;
19848;SDS011;10085;51.120;6.956;2023-03-14T21:31:17;289.85;;;101.32;;
19848;SDS011;10085;51.120;6.956;2023-03-14T21:36:21;287.65;;;101.18;;
19848;SDS011;10085;51.120;6.956;2023-03-14T21:41:24;280.55;;;97.03;;
19848;SDS011;10085;51.120;6.956;2023-03-14T21:46:26;261.02;;;92.05;;
19848;SDS011;10085;51.120;6.956;2023-03-14T21:51:38;232.77;;;82.75;;
19848;SDS011;10085;51.120;6.956;2023-03-14T21:56:41;230.73;;;79.38;;
19848;SDS011;10085;51.120;6.956;2023-03-14T22:01:45;221.43;;;78.45;;
19848;SDS011;10085;51.120;6.956;2023-03-14T22:06:49;207.95;;;73.68;;
19848;SDS011;10085;51.120;6.956;2023-03-14T22:11:52;194.55;;;70.10;;
19848;SDS011;10085;51.120;6.956;2023-03-14T22:16:54;181.57;;;63.95;;
19848;SDS011;10085;51.120;6.956;2023-03-14T22:22:01;155.98;;;57.95;;
19848;SDS011;10085;51.120;6.956;2023-03-14T22:27:04;162.13;;;58.45;;
19848;SDS011;10085;51.120;6.956;2023-03-14T22:32:06;171.88;;;59.28;;
19848;SDS011;10085;51.120;6.956;2023-03-14T22:37:11;149.25;;;53.83;;
19848;SDS011;10085;51.120;6.956;2023-03-14T22:42:14;112.70;;;44.10;;
19848;SDS011;10085;51.120;6.956;2023-03-14T22:47:17;135.98;;;47.95;;
19848;SDS011;10085;51.120;6.956;2023-03-14T22:52:21;124.07;;;45.08;;
19848;SDS011;10085;51.120;6.956;2023-03-14T22:57:23;126.97;;;43.78;;
19848;SDS011;10085;51.120;6.956;2023-03-14T23:02:26;111.43;;;43.53;;
19848;SDS011;10085;51.120;6.956;2023-03-14T23:07:30;115.13;;;41.58;;
19848;SDS011;10085;51.120;6.956;2023-03-14T23:12:33;97.55;;;37.25;;
19848;SDS011;10085;51.120;6.956;2023-03-14T23:17:35;90.20;;;35.80;;
19848;SDS011;10085;51.120;6.956;2023-03-14T23:22:39;89.57;;;34.35;;
19848;SDS011;10085;51.120;6.956;2023-03-14T23:27:42;99.03;;;37.70;;
19848;SDS011;10085;51.120;6.956;2023-03-14T23:32:46;91.13;;;35.38;;
19848;SDS011;10085;51.120;6.956;2023-03-14T23:37:50;79.82;;;30.92;;
19848;SDS011;10085;51.120;6.956;2023-03-14T23:42:53;83.45;;;31.77;;
19848;SDS011;10085;51.120;6.956;2023-03-14T23:47:55;68.68;;;27.55;;
19848;SDS011;10085;51.120;6.956;2023-03-14T23:53:00;74.82;;;29.23;;
19848;SDS011;10085;51.120;6.956;2023-03-14T23:58:02;70.03;;;29.13;;
